CheckWX is a tool to help pilots better visualize weather data.  It is not intended as a substitute for an official pre-flight weather briefing.

00:53:24 UTC

ENML METAR
Molde Airport
Årø, Norway
Current

33 mins ago

ENML 240020Z 25022KT 9999 -SHRA BKN031 04/M00 Q1013
Observed
Mar-24 @ 00:20 UTC
Wind
  • 250° at 22 KTS
Visibility
10,000+ meters
Flight Rules
VFR
Conditions
Light Rain
Cloud Levels
  • Broken at 3,100' AGL
Temperature
C / 39°F
Dewpoint
C / 32°F
Humidity
75%
Altimeter
29.91" Hg
Pressure
1012.92 hPa
Previous

1 hour ago

ENML 232350Z 26020KT 9999 -SHRA FEW033 SCT043 BKN054 04/M03 Q1013
Observed
Mar-23 @ 23:50 UTC
Wind
  • 260° at 20 KTS
Visibility
10,000+ meters
Flight Rules
VFR
Conditions
Light Rain
Cloud Levels
  • Few at 3,300' AGL
  • Scattered at 4,300' AGL
  • Broken at 5,400' AGL
Temperature
C / 39°F
Dewpoint
-3°C / 27°F
Humidity
61%
Altimeter
29.91" Hg
Pressure
1012.92 hPa
Previous

2 hours ago

ENML 232320Z 26020KT 9999 -SHRA BKN048 05/M04 Q1013
Observed
Mar-23 @ 23:20 UTC
Wind
  • 260° at 20 KTS
Visibility
10,000+ meters
Flight Rules
VFR
Conditions
Light Rain
Cloud Levels
  • Broken at 4,800' AGL
Temperature
C / 41°F
Dewpoint
-4°C / 25°F
Humidity
53%
Altimeter
29.91" Hg
Pressure
1012.92 hPa